Stillwater, NJ (07875)

6:43 AM EDT on October 01, 2016 (GMT -0400)
Delaware water gap | | Change Station

Elev 790 ft 41.01 °N, 74.98 °W | Updated 24 seconds ago

Overcast
Overcast
51.0 °F
Feels Like 51.0 °F
N
2.0
Wind Variable Wind from NW

Today
High -- | Low -- °F
--% Chance of Precip.
Yesterday
High -- | Low -- °F
Precip. -- in
Pressure 30.25 in
Visibility 3.0 miles
Clouds Overcast 600 ft
Dew Point 50 °F
Humidity 98%
Rainfall 0.00 in
Snow Depth Not available.
6:56 AM 6:40 PM
New Moon, 0% visible
METAR KFWN 010953Z AUTO 05009KT 3SM BR OVC006 11/11 A3024 RMK AO2 SLP241 T01110106
Pressure 30.25 in
Visibility 3.0 miles
Clouds Overcast 600 ft
Dew Point 50 °F
Humidity 98%
Rainfall 0.00 in
Snow Depth Not available.
6:56 AM 6:40 PM
New Moon, 0% visible
METAR KFWN 010953Z AUTO 05009KT 3SM BR OVC006 11/11 A3024 RMK AO2 SLP241 T01110106

10-Day Weather Forecast

Almanac

Astronomy

Oct. 01, 2016 Rise Set
Actual Time
Civil Twilight
Nautical Twilight
Astronomical Twilight
Moon
Length of Visible Light
Length of Day
Tomorrow will be .
, % of the Moon is Illuminated

Today's Extremes

State Highs State Lows

Community

WunderPhotos

Upload Photos

1,942,908 photos uploaded!

WunderBlog® & News

Nearby

Air Quality

  Air Quality AQ Index Pollutant
Not available.

Snow Depth

Station Depth Elevation

Earthquake Activity

City Distance Mag. Time & Date
Minimum magnitude displayed is 2.5.

Coastal Water Temperatures

Place Temperature

Stations

Nearby Weather Stations

Station Location Temp. Windchill Dew Point Humidity Wind Precip. Elev Updated Type
                   

Watches & Warnings

There are currently no watches in effect.